createdAt,value
2019-05-30T00:00:16.982Z,57.32
2019-05-30T00:01:11.269Z,57.32
2019-05-30T00:02:10.256Z,57.43
2019-05-30T00:03:10.239Z,57.53
2019-05-30T00:04:10.234Z,58.14
2019-05-30T00:05:10.210Z,57.84
2019-05-30T00:06:10.203Z,58.04
2019-05-30T00:07:11.306Z,58.04
2019-05-30T00:08:10.180Z,57.73
2019-05-30T00:09:10.189Z,57.73
2019-05-30T00:10:10.155Z,57.53
2019-05-30T00:11:10.154Z,57.73
2019-05-30T00:12:10.136Z,57.73
2019-05-30T00:13:10.122Z,57.73
2019-05-30T00:14:10.128Z,57.63
2019-05-30T00:15:10.118Z,57.93
2019-05-30T00:16:10.091Z,57.84
2019-05-30T00:17:10.075Z,58.14
2019-05-30T00:18:10.059Z,58.07
2019-05-30T00:19:10.058Z,58.55
2019-05-30T00:20:10.049Z,58.55
2019-05-30T00:21:10.055Z,58.58
2019-05-30T00:22:10.020Z,58.65
2019-05-30T00:23:11.195Z,58.78
2019-05-30T00:24:10.123Z,59.80
2019-05-30T00:25:09.988Z,59.30
2019-05-30T00:26:10.014Z,59.19
2019-05-30T00:27:09.965Z,58.89
2019-05-30T00:28:09.957Z,59.91
2019-05-30T00:29:09.936Z,59.70
2019-05-30T00:30:23.960Z,59.73
2019-05-30T00:31:10.913Z,59.91
2019-05-30T00:32:09.935Z,59.94
2019-05-30T00:33:09.895Z,59.91
2019-05-30T00:34:09.880Z,59.50
2019-05-30T00:35:09.866Z,60.35
2019-05-30T00:36:09.860Z,60.11
2019-05-30T00:37:09.851Z,60.72
2019-05-30T00:38:09.838Z,59.73
2019-05-30T00:39:09.822Z,60.11
2019-05-30T00:40:09.826Z,60.21
2019-05-30T00:41:09.820Z,60.52
2019-05-30T00:42:09.824Z,60.03
2019-05-30T00:43:09.798Z,60.11
2019-05-30T00:44:09.766Z,60.85
2019-05-30T00:45:20.412Z,60.11
2019-05-30T00:46:10.766Z,60.62
2019-05-30T00:47:09.748Z,60.65
2019-05-30T00:48:09.739Z,60.42
2019-05-30T00:49:09.710Z,60.03
2019-05-30T00:50:09.698Z,59.83
2019-05-30T00:51:09.691Z,60.03
2019-05-30T00:52:09.724Z,59.63
2019-05-30T00:53:09.681Z,60.14
2019-05-30T00:54:09.685Z,59.94
2019-05-30T00:55:09.648Z,60.85
2019-05-30T00:56:09.624Z,59.94
2019-05-30T00:57:09.620Z,59.73
2019-05-30T00:58:09.620Z,59.73
2019-05-30T00:59:09.591Z,60.24
2019-05-30T01:00:09.584Z,59.83
2019-05-30T01:01:09.579Z,60.55
2019-05-30T01:02:09.560Z,60.03
2019-05-30T01:03:09.758Z,60.35
2019-05-30T01:04:09.560Z,60.55
2019-05-30T01:05:09.547Z,61.06
2019-05-30T01:06:09.516Z,60.24
2019-05-30T01:07:09.506Z,60.44
2019-05-30T01:08:09.496Z,60.17
2019-05-30T01:09:09.521Z,60.27
2019-05-30T01:10:09.472Z,60.99
2019-05-30T01:11:09.463Z,62.01
2019-05-30T01:12:09.447Z,61.40
2019-05-30T01:13:09.460Z,60.78
2019-05-30T01:14:09.427Z,61.29
2019-05-30T01:15:09.436Z,60.68
2019-05-30T01:16:09.412Z,62.11
2019-05-30T01:17:09.389Z,61.80
2019-05-30T01:18:09.376Z,61.91
2019-05-30T01:19:09.378Z,62.52
2019-05-30T01:20:09.355Z,61.80
2019-05-30T01:21:09.350Z,62.01
2019-05-30T01:22:09.356Z,62.62
2019-05-30T01:23:09.319Z,62.52
2019-05-30T01:24:09.313Z,62.83
2019-05-30T01:25:09.304Z,62.45
2019-05-30T01:26:09.292Z,61.93
2019-05-30T01:27:09.304Z,61.91
2019-05-30T01:28:09.267Z,61.80
2019-05-30T01:29:09.255Z,62.04
2019-05-30T01:30:09.258Z,61.52
2019-05-30T01:31:11.457Z,62.21
2019-05-30T01:32:09.224Z,61.73
2019-05-30T01:33:09.223Z,62.04
2019-05-30T01:34:09.196Z,62.14
2019-05-30T01:35:09.184Z,62.55
2019-05-30T01:36:09.176Z,62.14
2019-05-30T01:37:09.167Z,62.45
2019-05-30T01:38:09.170Z,62.65
2019-05-30T01:39:09.138Z,62.35
2019-05-30T01:40:09.201Z,62.65
2019-05-30T01:41:09.123Z,62.24
2019-05-30T01:42:09.105Z,62.45
2019-05-30T01:43:09.109Z,62.04
2019-05-30T01:44:09.095Z,62.65
2019-05-30T01:45:09.112Z,62.65
2019-05-30T01:46:09.062Z,62.04
2019-05-30T01:47:09.071Z,62.14
2019-05-30T01:48:09.040Z,61.83
2019-05-30T01:49:09.038Z,62.45
2019-05-30T01:50:09.029Z,62.65
2019-05-30T01:51:09.052Z,62.24
2019-05-30T01:52:08.993Z,62.45
2019-05-30T01:53:09.013Z,62.35
2019-05-30T01:54:09.074Z,62.76
2019-05-30T01:55:09.222Z,63.57
2019-05-30T01:56:09.044Z,63.17
2019-05-30T01:57:08.938Z,62.68
2019-05-30T01:58:09.183Z,62.37
2019-05-30T01:59:09.114Z,62.17
2019-05-30T02:00:19.930Z,63.60
2019-05-30T02:01:22.617Z,63.40
2019-05-30T02:02:09.905Z,63.40
2019-05-30T02:03:09.519Z,62.99
2019-05-30T02:04:09.492Z,62.68
2019-05-30T02:05:09.474Z,62.48
2019-05-30T02:06:09.400Z,63.29
2019-05-30T02:07:09.409Z,62.07
2019-05-30T02:08:10.074Z,63.09
2019-05-30T02:09:10.335Z,62.58
2019-05-30T02:10:10.103Z,62.58
2019-05-30T02:11:09.551Z,63.70
2019-05-30T02:12:09.602Z,63.91
2019-05-30T02:13:09.820Z,63.40
2019-05-30T02:14:09.906Z,62.58
2019-05-30T02:15:10.051Z,64.01
2019-05-30T02:16:09.966Z,64.22
2019-05-30T02:17:10.033Z,65.14
2019-05-30T02:18:09.895Z,64.32
2019-05-30T02:19:10.412Z,63.50
2019-05-30T02:20:09.991Z,64.01
2019-05-30T02:21:09.947Z,63.73
2019-05-30T02:22:09.857Z,62.99
2019-05-30T02:23:09.936Z,62.88
2019-05-30T02:24:08.680Z,63.70
2019-05-30T02:25:08.627Z,63.70
2019-05-30T02:26:08.615Z,63.73
2019-05-30T02:27:08.631Z,64.32
2019-05-30T02:28:08.601Z,64.42
2019-05-30T02:29:08.599Z,64.45
2019-05-30T02:30:11.640Z,64.25
2019-05-30T02:31:11.949Z,63.50
2019-05-30T02:32:09.226Z,63.81
2019-05-30T02:33:10.574Z,63.84
2019-05-30T02:34:10.142Z,64.25
2019-05-30T02:35:10.524Z,63.73
2019-05-30T02:36:10.626Z,63.70
2019-05-30T02:37:10.316Z,64.65
2019-05-30T02:38:11.236Z,64.35
2019-05-30T02:39:09.878Z,64.65
2019-05-30T02:40:13.618Z,64.25
2019-05-30T02:41:10.091Z,64.04
2019-05-30T02:42:09.572Z,64.25
2019-05-30T02:43:11.501Z,64.56
2019-05-30T02:44:10.242Z,65.37
2019-05-30T02:45:11.794Z,63.84
2019-05-30T02:46:09.987Z,65.37
2019-05-30T02:47:09.599Z,64.56
2019-05-30T02:48:10.032Z,64.56
2019-05-30T02:49:09.582Z,64.14
2019-05-30T02:50:10.706Z,64.14
2019-05-30T02:51:10.116Z,64.25
2019-05-30T02:52:08.611Z,64.56
2019-05-30T02:53:10.556Z,64.45
2019-05-30T02:54:09.412Z,63.64
2019-05-30T02:55:10.291Z,63.73
2019-05-30T02:56:09.899Z,64.76
2019-05-30T02:57:10.127Z,64.14
2019-05-30T02:58:10.249Z,64.14
2019-05-30T02:59:09.299Z,64.65
2019-05-30T03:00:12.723Z,64.14
2019-05-30T03:01:11.338Z,64.04
2019-05-30T03:02:12.348Z,63.64
2019-05-30T03:03:11.597Z,63.84
2019-05-30T03:04:09.882Z,64.04
2019-05-30T03:05:11.454Z,63.70
2019-05-30T03:06:09.172Z,63.94
2019-05-30T03:07:09.028Z,63.43
2019-05-30T03:08:10.933Z,64.22
2019-05-30T03:09:09.132Z,62.99
2019-05-30T03:10:11.658Z,62.58
2019-05-30T03:11:10.794Z,63.20
2019-05-30T03:12:09.099Z,62.65
2019-05-30T03:13:08.291Z,62.21
2019-05-30T03:14:12.106Z,62.01
2019-05-30T03:15:12.051Z,61.91
2019-05-30T03:16:09.291Z,60.24
2019-05-30T03:17:10.210Z,60.35
2019-05-30T03:18:10.345Z,60.01
2019-05-30T03:19:08.667Z,59.60
2019-05-30T03:20:14.734Z,59.16
2019-05-30T03:21:12.329Z,58.86
2019-05-30T03:22:09.517Z,58.42
2019-05-30T03:23:09.943Z,58.01
2019-05-30T03:24:11.181Z,58.62
2019-05-30T03:25:12.476Z,57.91
2019-05-30T03:26:10.827Z,58.01
2019-05-30T03:27:09.959Z,57.20
2019-05-30T03:28:09.049Z,58.39
2019-05-30T03:29:09.976Z,57.37
2019-05-30T03:30:16.114Z,57.04
2019-05-30T03:31:20.387Z,56.84
2019-05-30T03:32:50.507Z,57.24
2019-05-30T03:33:24.340Z,56.43
2019-05-30T03:34:16.986Z,56.50
2019-05-30T03:35:18.996Z,56.10
2019-05-30T03:36:18.084Z,56.07
2019-05-30T03:37:17.620Z,56.37
2019-05-30T03:38:10.634Z,54.31
2019-05-30T03:39:09.978Z,54.59
2019-05-30T03:40:07.793Z,54.16
2019-05-30T03:41:11.296Z,53.02
2019-05-30T03:42:09.078Z,52.58
2019-05-30T03:43:09.171Z,51.56
2019-05-30T03:44:08.921Z,51.97
2019-05-30T03:45:10.663Z,51.56
2019-05-30T03:46:08.741Z,51.67
2019-05-30T03:47:08.561Z,51.56
2019-05-30T03:48:09.879Z,51.59
2019-05-30T03:49:08.667Z,51.67
2019-05-30T03:50:09.795Z,51.87
2019-05-30T03:51:09.351Z,51.46
2019-05-30T03:52:09.932Z,50.40
2019-05-30T03:53:11.058Z,49.97
2019-05-30T03:54:09.889Z,49.41
2019-05-30T03:55:09.438Z,48.78
2019-05-30T03:56:09.208Z,48.35
2019-05-30T03:57:08.980Z,46.91
2019-05-30T03:58:08.122Z,46.81
2019-05-30T03:59:08.076Z,46.26
2019-05-30T04:00:09.497Z,45.73
2019-05-30T04:01:08.075Z,44.72
2019-05-30T04:02:09.492Z,45.69
2019-05-30T04:03:09.328Z,44.58
2019-05-30T04:04:09.175Z,44.05
2019-05-30T04:05:09.125Z,43.95
2019-05-30T04:06:10.166Z,43.43
2019-05-30T04:07:09.071Z,43.63
2019-05-30T04:08:09.425Z,42.70
2019-05-30T04:09:09.444Z,42.58
2019-05-30T04:10:08.973Z,42.78
2019-05-30T04:11:09.385Z,42.27
2019-05-30T04:12:09.598Z,42.47
2019-05-30T04:13:07.416Z,41.05
2019-05-30T04:14:08.893Z,41.85
2019-05-30T04:15:07.965Z,40.74
2019-05-30T04:16:08.635Z,41.42
2019-05-30T04:17:08.385Z,41.22
2019-05-30T04:18:08.994Z,40.82
2019-05-30T04:19:08.030Z,40.92
2019-05-30T04:20:09.372Z,40.82
2019-05-30T04:21:08.546Z,40.22
2019-05-30T04:22:07.806Z,39.92
2019-05-30T04:23:08.558Z,40.10
2019-05-30T04:24:07.619Z,40.50
2019-05-30T04:25:08.596Z,40.70
2019-05-30T04:26:07.471Z,39.59
2019-05-30T04:27:07.977Z,39.17
2019-05-30T04:28:07.832Z,38.87
2019-05-30T04:29:07.999Z,38.75
2019-05-30T04:30:09.859Z,39.25
2019-05-30T04:31:08.065Z,39.03
2019-05-30T04:32:08.437Z,38.33
2019-05-30T04:33:22.489Z,37.81
2019-05-30T04:34:08.399Z,38.51
2019-05-30T04:35:08.049Z,38.21
2019-05-30T04:36:08.393Z,37.71
2019-05-30T04:37:08.210Z,37.89
2019-05-30T04:38:08.567Z,37.37
2019-05-30T04:39:08.626Z,36.03
2019-05-30T04:40:08.450Z,36.02
2019-05-30T04:41:08.760Z,34.89
2019-05-30T04:42:07.085Z,35.08
2019-05-30T04:43:07.081Z,34.55
2019-05-30T04:44:07.097Z,34.03
2019-05-30T04:45:07.069Z,33.53
2019-05-30T04:46:07.046Z,33.31
2019-05-30T04:47:07.033Z,32.91
2019-05-30T04:48:07.030Z,32.91
2019-05-30T04:49:07.019Z,32.89
2019-05-30T04:50:07.004Z,32.79
2019-05-30T04:51:07.010Z,32.28
2019-05-30T04:52:11.296Z,31.68
2019-05-30T04:53:07.970Z,32.46
2019-05-30T04:54:06.959Z,31.87
2019-05-30T04:55:06.940Z,32.17
2019-05-30T04:56:06.929Z,32.58
2019-05-30T04:57:06.911Z,32.08
2019-05-30T04:58:06.999Z,32.17
2019-05-30T04:59:06.897Z,32.06
2019-05-30T05:00:06.893Z,32.35
2019-05-30T05:01:06.871Z,31.85
2019-05-30T05:02:06.858Z,32.03
2019-05-30T05:03:06.871Z,31.54
2019-05-30T05:04:06.843Z,31.01
2019-05-30T05:05:06.842Z,30.80
2019-05-30T05:06:06.836Z,30.91
2019-05-30T05:07:06.807Z,30.51
2019-05-30T05:08:06.804Z,30.69
2019-05-30T05:09:06.804Z,30.28
2019-05-30T05:10:06.774Z,29.77
2019-05-30T05:11:06.761Z,29.16
2019-05-30T05:12:06.768Z,28.93
2019-05-30T05:13:06.745Z,29.21
2019-05-30T05:14:06.747Z,28.62
2019-05-30T05:15:06.723Z,29.00
2019-05-30T05:16:21.991Z,28.29
2019-05-30T05:17:07.738Z,27.68
2019-05-30T05:18:06.684Z,27.77
2019-05-30T05:19:06.671Z,26.76
2019-05-30T05:20:06.657Z,28.08
2019-05-30T05:21:06.649Z,28.19
2019-05-30T05:22:06.640Z,27.99
2019-05-30T05:23:06.645Z,28.19
2019-05-30T05:24:06.619Z,27.78
2019-05-30T05:25:06.605Z,28.06
2019-05-30T05:26:06.591Z,26.96
2019-05-30T05:27:09.760Z,26.45
2019-05-30T05:28:06.576Z,26.65
2019-05-30T05:29:06.561Z,26.75
2019-05-30T05:30:06.605Z,26.65
2019-05-30T05:31:06.537Z,27.04
2019-05-30T05:32:06.526Z,26.76
2019-05-30T05:33:06.514Z,27.46
2019-05-30T05:34:06.519Z,27.57
2019-05-30T05:35:06.491Z,28.06
2019-05-30T05:36:06.485Z,28.27
2019-05-30T05:37:06.491Z,27.97
2019-05-30T05:38:06.464Z,27.68
2019-05-30T05:39:06.456Z,28.09
2019-05-30T05:40:06.446Z,28.50
2019-05-30T05:41:06.445Z,28.22
2019-05-30T05:42:06.415Z,28.63
2019-05-30T05:43:06.427Z,29.35
2019-05-30T05:44:06.393Z,29.50
2019-05-30T05:45:06.405Z,30.92
2019-05-30T05:46:06.377Z,32.15
2019-05-30T05:47:06.365Z,32.68
2019-05-30T05:48:06.430Z,33.51
2019-05-30T05:49:06.341Z,34.12
2019-05-30T05:50:06.340Z,34.34
2019-05-30T05:51:06.327Z,33.94
2019-05-30T05:52:06.362Z,34.86
2019-05-30T05:53:06.303Z,34.78
2019-05-30T05:54:06.327Z,35.69
2019-05-30T05:55:06.269Z,35.71
2019-05-30T05:56:06.261Z,35.41
2019-05-30T05:57:06.264Z,35.51
2019-05-30T05:58:06.253Z,35.93
2019-05-30T05:59:06.226Z,36.23
2019-05-30T06:00:06.219Z,36.15
2019-05-30T06:01:06.206Z,37.17
2019-05-30T06:02:06.319Z,37.37
2019-05-30T06:03:06.183Z,37.49
2019-05-30T06:04:12.978Z,37.89
2019-05-30T06:05:07.163Z,38.20
2019-05-30T06:06:06.203Z,37.21
2019-05-30T06:07:06.148Z,38.43
2019-05-30T06:08:06.148Z,38.73
2019-05-30T06:09:06.122Z,38.93
2019-05-30T06:10:06.099Z,38.53
2019-05-30T06:11:06.097Z,38.05
2019-05-30T06:12:06.077Z,39.25
2019-05-30T06:13:06.079Z,40.06
2019-05-30T06:14:06.063Z,39.58
2019-05-30T06:15:06.234Z,40.08
2019-05-30T06:16:06.046Z,39.48
2019-05-30T06:17:06.027Z,40.40
2019-05-30T06:18:06.012Z,40.00
2019-05-30T06:19:06.017Z,40.48
2019-05-30T06:20:05.993Z,40.69
2019-05-30T06:21:05.991Z,40.10
2019-05-30T06:22:05.975Z,40.50
2019-05-30T06:23:05.954Z,41.20
2019-05-30T06:24:05.966Z,41.81
2019-05-30T06:25:05.962Z,41.22
2019-05-30T06:26:05.933Z,41.00
2019-05-30T06:27:05.919Z,40.92
2019-05-30T06:28:05.911Z,41.13
2019-05-30T06:29:05.891Z,41.05
2019-05-30T06:30:05.883Z,41.73
2019-05-30T06:31:05.867Z,41.02
2019-05-30T06:32:05.859Z,41.42
2019-05-30T06:33:05.843Z,40.54
2019-05-30T06:34:05.842Z,40.94
2019-05-30T06:35:05.828Z,43.06
2019-05-30T06:36:05.827Z,42.38
2019-05-30T06:37:05.809Z,42.68
2019-05-30T06:38:05.794Z,42.98
2019-05-30T06:39:05.822Z,41.97
2019-05-30T06:40:05.775Z,42.58
2019-05-30T06:41:05.766Z,42.78
2019-05-30T06:42:05.743Z,41.87
2019-05-30T06:43:05.730Z,42.47
2019-05-30T06:44:05.942Z,42.07
2019-05-30T06:45:05.707Z,42.38
2019-05-30T06:46:05.711Z,42.38
2019-05-30T06:47:05.709Z,41.16
2019-05-30T06:48:05.673Z,42.58
2019-05-30T06:49:05.666Z,41.77
2019-05-30T06:50:05.664Z,41.56
2019-05-30T06:51:05.647Z,40.96
2019-05-30T06:52:05.684Z,41.56
2019-05-30T06:53:05.621Z,40.66
2019-05-30T06:54:05.625Z,40.46
2019-05-30T06:55:05.598Z,40.56
2019-05-30T06:56:05.654Z,41.36
2019-05-30T06:57:05.614Z,40.96
2019-05-30T06:58:05.593Z,40.96
2019-05-30T06:59:05.584Z,41.67
2019-05-30T07:00:05.543Z,40.96
2019-05-30T07:01:05.550Z,40.25
2019-05-30T07:02:05.518Z,40.05
2019-05-30T07:03:05.669Z,40.46
2019-05-30T07:04:05.798Z,40.16
2019-05-30T07:05:06.200Z,39.35
2019-05-30T07:06:05.951Z,40.16
2019-05-30T07:07:06.284Z,41.06
2019-05-30T07:08:05.452Z,41.36
2019-05-30T07:09:05.478Z,40.36
2019-05-30T07:10:05.427Z,40.46
2019-05-30T07:11:05.429Z,40.96
2019-05-30T07:12:05.414Z,41.36
2019-05-30T07:13:05.393Z,40.36
2019-05-30T07:14:05.377Z,39.95
2019-05-30T07:15:05.392Z,40.25
2019-05-30T07:16:05.356Z,40.25
2019-05-30T07:17:05.353Z,40.36
2019-05-30T07:18:05.367Z,40.36
2019-05-30T07:19:05.328Z,40.76
2019-05-30T07:20:05.312Z,39.95
2019-05-30T07:21:05.303Z,39.25
2019-05-30T07:22:05.288Z,39.15
2019-05-30T07:23:05.281Z,40.05
2019-05-30T07:24:05.275Z,39.55
2019-05-30T07:25:05.273Z,40.05
2019-05-30T07:26:05.267Z,40.46
2019-05-30T07:27:05.237Z,41.56
2019-05-30T07:28:05.223Z,40.66
2019-05-30T07:29:05.217Z,39.15
2019-05-30T07:30:05.241Z,39.35
2019-05-30T07:31:05.190Z,39.25
2019-05-30T07:32:05.179Z,40.25
2019-05-30T07:33:05.167Z,39.25
2019-05-30T07:34:05.157Z,38.84
2019-05-30T07:35:07.219Z,38.73
2019-05-30T07:36:05.135Z,39.23
2019-05-30T07:37:05.134Z,38.44
2019-05-30T07:38:05.110Z,39.25
2019-05-30T07:39:05.111Z,38.73
2019-05-30T07:40:05.096Z,38.75
2019-05-30T07:41:05.093Z,38.54
2019-05-30T07:42:06.488Z,37.63
2019-05-30T07:43:05.083Z,37.62
2019-05-30T07:44:05.050Z,36.93
2019-05-30T07:45:05.033Z,37.02
2019-05-30T07:46:05.065Z,37.92
2019-05-30T07:47:05.025Z,38.34
2019-05-30T07:48:05.003Z,38.52
2019-05-30T07:49:05.116Z,39.53
2019-05-30T07:50:05.011Z,38.52
2019-05-30T07:51:04.966Z,38.93
2019-05-30T07:52:04.954Z,38.32
2019-05-30T07:53:04.978Z,37.62
2019-05-30T07:54:04.927Z,37.92
2019-05-30T07:55:04.912Z,38.10
2019-05-30T07:56:04.906Z,39.83
2019-05-30T07:57:04.920Z,38.93
2019-05-30T07:58:04.898Z,38.22
2019-05-30T07:59:04.902Z,39.11
2019-05-30T08:00:04.862Z,37.31
2019-05-30T08:01:04.847Z,36.40
2019-05-30T08:02:04.839Z,37.19
2019-05-30T08:03:05.046Z,36.30
2019-05-30T08:04:04.817Z,35.80
2019-05-30T08:05:04.815Z,36.19
2019-05-30T08:06:04.799Z,36.71
2019-05-30T08:07:04.785Z,36.10
2019-05-30T08:08:04.780Z,36.39
2019-05-30T08:09:04.782Z,36.59
2019-05-30T08:10:04.748Z,36.40
2019-05-30T08:11:09.501Z,35.99
2019-05-30T08:12:05.725Z,36.49
2019-05-30T08:13:04.724Z,36.59
2019-05-30T08:14:04.708Z,36.29
2019-05-30T08:15:04.695Z,37.09
2019-05-30T08:16:04.716Z,37.09
2019-05-30T08:17:04.673Z,37.70
2019-05-30T08:18:04.656Z,37.70
2019-05-30T08:19:04.651Z,37.60
2019-05-30T08:20:04.635Z,38.00
2019-05-30T08:21:04.649Z,37.49
2019-05-30T08:22:04.609Z,37.70
2019-05-30T08:23:04.603Z,37.60
2019-05-30T08:24:04.591Z,37.38
2019-05-30T08:25:04.590Z,37.90
2019-05-30T08:26:04.589Z,37.60
2019-05-30T08:27:04.565Z,37.49
2019-05-30T08:28:04.548Z,38.81
2019-05-30T08:29:04.555Z,37.27
2019-05-30T08:30:04.528Z,38.28
2019-05-30T08:31:04.510Z,37.38
2019-05-30T08:32:04.497Z,37.58
2019-05-30T08:33:04.504Z,38.59
2019-05-30T08:34:04.482Z,38.28
2019-05-30T08:35:04.469Z,38.28
2019-05-30T08:36:05.758Z,38.08
2019-05-30T08:37:04.453Z,38.69
2019-05-30T08:38:04.473Z,38.99
2019-05-30T08:39:04.424Z,38.39
2019-05-30T08:40:04.412Z,38.59
2019-05-30T08:41:04.412Z,38.28
2019-05-30T08:42:04.388Z,38.48
2019-05-30T08:43:04.383Z,38.37
2019-05-30T08:44:04.378Z,38.57
2019-05-30T08:45:04.424Z,38.79
2019-05-30T08:46:04.338Z,38.57
2019-05-30T08:47:04.346Z,38.07
2019-05-30T08:48:04.327Z,38.59
2019-05-30T08:49:04.337Z,37.16
2019-05-30T08:50:04.291Z,37.76
2019-05-30T08:51:04.290Z,38.27
2019-05-30T08:52:04.273Z,37.96
2019-05-30T08:53:04.278Z,37.76
2019-05-30T08:54:04.270Z,38.07
2019-05-30T08:55:04.251Z,38.37
2019-05-30T08:56:04.227Z,37.46
2019-05-30T08:57:04.382Z,37.66
2019-05-30T08:58:04.206Z,37.85
2019-05-30T08:59:04.204Z,37.24
2019-05-30T09:00:04.202Z,38.45
2019-05-30T09:01:04.285Z,37.14
2019-05-30T09:02:04.182Z,36.74
2019-05-30T09:03:04.205Z,37.54
2019-05-30T09:04:04.141Z,37.65
2019-05-30T09:05:06.847Z,37.65
2019-05-30T09:06:04.595Z,38.55
2019-05-30T09:07:04.148Z,38.85
2019-05-30T09:08:04.111Z,37.85
2019-05-30T09:09:04.106Z,37.24
2019-05-30T09:10:04.078Z,37.12
2019-05-30T09:11:04.067Z,37.23
2019-05-30T09:12:04.055Z,37.63
2019-05-30T09:13:04.039Z,36.82
2019-05-30T09:14:04.038Z,37.52
2019-05-30T09:15:04.012Z,37.83
2019-05-30T09:16:04.009Z,37.43
2019-05-30T09:17:03.998Z,37.23
2019-05-30T09:18:03.978Z,36.62
2019-05-30T09:19:03.981Z,37.63
2019-05-30T09:20:03.978Z,37.63
2019-05-30T09:21:03.947Z,37.02
2019-05-30T09:22:03.938Z,37.41
2019-05-30T09:23:03.947Z,37.43
2019-05-30T09:24:03.946Z,36.52
2019-05-30T09:25:03.932Z,36.72
2019-05-30T09:26:03.898Z,37.10
2019-05-30T09:27:03.880Z,37.30
2019-05-30T09:28:03.891Z,36.50
2019-05-30T09:29:03.967Z,37.61
2019-05-30T09:30:03.889Z,37.30
2019-05-30T09:31:03.833Z,36.90
2019-05-30T09:32:03.828Z,36.10
2019-05-30T09:33:03.809Z,37.21
2019-05-30T09:34:03.812Z,35.70
2019-05-30T09:35:03.810Z,36.30
2019-05-30T09:36:12.787Z,36.00
2019-05-30T09:37:04.793Z,37.01
2019-05-30T09:38:03.957Z,36.80
2019-05-30T09:39:03.755Z,36.49
2019-05-30T09:40:03.751Z,36.38
2019-05-30T09:41:03.718Z,36.18
2019-05-30T09:42:03.712Z,36.08
2019-05-30T09:43:03.697Z,36.29
2019-05-30T09:44:03.689Z,36.29
2019-05-30T09:45:03.677Z,35.58
2019-05-30T09:46:03.671Z,35.68
2019-05-30T09:47:03.653Z,35.58
2019-05-30T09:48:03.647Z,35.48
2019-05-30T09:49:03.662Z,35.28
2019-05-30T09:50:04.027Z,35.18
2019-05-30T09:51:03.616Z,35.78
2019-05-30T09:52:03.601Z,35.78
2019-05-30T09:53:03.583Z,34.78
2019-05-30T09:54:03.576Z,34.88
2019-05-30T09:55:03.561Z,36.08
2019-05-30T09:56:03.552Z,35.98
2019-05-30T09:57:03.560Z,35.28
2019-05-30T09:58:03.535Z,35.58
2019-05-30T09:59:03.521Z,35.46
2019-05-30T10:00:03.533Z,34.96
2019-05-30T10:01:03.496Z,35.86
2019-05-30T10:02:03.485Z,35.97
2019-05-30T10:03:03.515Z,36.07
2019-05-30T10:04:03.554Z,36.47
2019-05-30T10:05:03.464Z,35.97
2019-05-30T10:06:03.446Z,35.35
2019-05-30T10:07:03.436Z,35.85
2019-05-30T10:08:03.443Z,35.05
2019-05-30T10:09:03.432Z,34.04
2019-05-30T10:10:03.396Z,33.74
2019-05-30T10:11:03.408Z,33.94
2019-05-30T10:12:03.370Z,33.34
2019-05-30T10:13:03.366Z,33.04
2019-05-30T10:14:03.348Z,33.83
2019-05-30T10:15:03.336Z,34.24
2019-05-30T10:16:03.331Z,34.24
2019-05-30T10:17:03.331Z,33.92
2019-05-30T10:18:03.306Z,34.53
2019-05-30T10:19:03.297Z,34.63
2019-05-30T10:20:03.305Z,34.92
2019-05-30T10:21:03.270Z,34.63
2019-05-30T10:22:03.268Z,35.13
2019-05-30T10:23:03.808Z,34.83
2019-05-30T10:24:03.254Z,35.63
2019-05-30T10:25:03.270Z,35.53
2019-05-30T10:26:03.245Z,33.92
2019-05-30T10:27:03.208Z,33.52
2019-05-30T10:28:03.205Z,34.11
2019-05-30T10:29:03.182Z,33.61
2019-05-30T10:30:03.180Z,34.11
2019-05-30T10:31:03.219Z,34.41
2019-05-30T10:32:03.171Z,34.61
2019-05-30T10:33:03.138Z,35.91
2019-05-30T10:34:03.130Z,35.11
2019-05-30T10:35:03.121Z,33.81
2019-05-30T10:36:03.106Z,33.81
2019-05-30T10:37:03.121Z,34.61
2019-05-30T10:38:03.084Z,34.71
2019-05-30T10:39:03.074Z,34.81
2019-05-30T10:40:03.063Z,35.21
2019-05-30T10:41:03.063Z,35.51
2019-05-30T10:42:03.058Z,35.51
2019-05-30T10:43:03.032Z,34.41
2019-05-30T10:44:03.016Z,35.21
2019-05-30T10:45:03.012Z,34.11
2019-05-30T10:46:03.001Z,34.59
2019-05-30T10:47:03.005Z,35.10
2019-05-30T10:48:03.049Z,34.80
2019-05-30T10:49:02.998Z,34.89
2019-05-30T10:50:02.981Z,34.80
2019-05-30T10:51:02.936Z,34.39
2019-05-30T10:52:02.938Z,33.99
2019-05-30T10:53:02.963Z,34.89
2019-05-30T10:54:02.936Z,35.10
2019-05-30T10:55:02.892Z,34.39
2019-05-30T10:56:02.894Z,34.39
2019-05-30T10:57:02.875Z,34.99
2019-05-30T10:58:02.872Z,34.17
2019-05-30T10:59:02.877Z,32.97
2019-05-30T11:00:02.849Z,33.78
2019-05-30T11:01:02.833Z,33.17
2019-05-30T11:02:02.824Z,33.07
2019-05-30T11:03:02.803Z,32.97
2019-05-30T11:04:02.853Z,33.37
2019-05-30T11:05:02.794Z,33.29
2019-05-30T11:06:02.950Z,33.07
2019-05-30T11:07:11.041Z,33.17
2019-05-30T11:08:06.090Z,33.47
2019-05-30T11:09:02.747Z,33.78
2019-05-30T11:10:02.787Z,33.37
2019-05-30T11:11:02.799Z,34.08
2019-05-30T11:12:02.708Z,34.08
2019-05-30T11:13:05.847Z,34.36
2019-05-30T11:14:02.683Z,34.16
2019-05-30T11:15:02.988Z,34.46
2019-05-30T11:16:02.687Z,33.16
2019-05-30T11:17:02.649Z,33.36
2019-05-30T11:18:02.653Z,32.84
2019-05-30T11:19:07.244Z,31.74
2019-05-30T11:20:03.654Z,32.24
2019-05-30T11:21:02.721Z,32.74
2019-05-30T11:22:02.603Z,32.64
2019-05-30T11:23:02.585Z,33.54
2019-05-30T11:24:02.595Z,32.34
2019-05-30T11:25:02.565Z,31.94
2019-05-30T11:26:02.555Z,32.94
2019-05-30T11:27:02.551Z,32.84
2019-05-30T11:28:02.536Z,33.74
2019-05-30T11:29:02.706Z,33.14
2019-05-30T11:30:02.511Z,32.34
2019-05-30T11:31:04.571Z,32.84
2019-05-30T11:32:02.488Z,32.34
2019-05-30T11:33:02.487Z,32.24
2019-05-30T11:34:02.461Z,32.54
2019-05-30T11:35:02.450Z,33.14
2019-05-30T11:36:02.442Z,32.12
2019-05-30T11:37:18.044Z,32.82
2019-05-30T11:38:03.419Z,31.82
2019-05-30T11:39:02.415Z,32.93
2019-05-30T11:40:02.398Z,32.62
2019-05-30T11:41:02.388Z,32.12
2019-05-30T11:42:02.371Z,31.62
2019-05-30T11:43:02.360Z,32.62
2019-05-30T11:44:04.194Z,31.52
2019-05-30T11:45:02.344Z,31.73
2019-05-30T11:46:02.329Z,32.03
2019-05-30T11:47:02.316Z,31.43
2019-05-30T11:48:02.309Z,31.12
2019-05-30T11:49:02.298Z,31.73
2019-05-30T11:50:02.328Z,31.73
2019-05-30T11:51:02.268Z,31.93
2019-05-30T11:52:02.263Z,32.32
2019-05-30T11:53:02.254Z,32.41
2019-05-30T11:54:02.243Z,32.91
2019-05-30T11:55:02.236Z,32.81
2019-05-30T11:56:02.223Z,33.31
2019-05-30T11:57:02.209Z,32.41
2019-05-30T11:58:02.192Z,32.01
2019-05-30T11:59:02.186Z,32.01
2019-05-30T12:00:02.174Z,31.61
2019-05-30T12:01:02.200Z,32.11
2019-05-30T12:02:02.209Z,32.01
2019-05-30T12:03:02.142Z,31.71
2019-05-30T12:04:02.125Z,32.41
2019-05-30T12:05:02.120Z,32.21
2019-05-30T12:06:02.104Z,32.20
2019-05-30T12:07:02.117Z,32.91
2019-05-30T12:08:02.082Z,32.59
2019-05-30T12:09:02.073Z,31.90
2019-05-30T12:10:02.060Z,31.40
2019-05-30T12:11:02.067Z,31.99
2019-05-30T12:12:02.050Z,31.79
2019-05-30T12:13:02.023Z,31.70
2019-05-30T12:14:02.051Z,31.49
2019-05-30T12:15:02.031Z,31.40
2019-05-30T12:16:01.986Z,32.09
2019-05-30T12:17:02.019Z,31.49
2019-05-30T12:18:02.518Z,31.70
2019-05-30T12:19:02.053Z,32.29
2019-05-30T12:20:02.028Z,31.58
2019-05-30T12:21:02.077Z,32.08
2019-05-30T12:22:02.143Z,32.08
2019-05-30T12:23:02.285Z,31.38
2019-05-30T12:24:02.665Z,32.09
2019-05-30T12:25:02.688Z,31.58
2019-05-30T12:26:02.259Z,32.78
2019-05-30T12:27:02.353Z,31.88
2019-05-30T12:28:04.129Z,31.18
2019-05-30T12:29:02.311Z,31.98
2019-05-30T12:30:02.681Z,31.78
2019-05-30T12:31:06.304Z,32.36
2019-05-30T12:32:03.124Z,31.88
2019-05-30T12:33:02.577Z,31.67
2019-05-30T12:34:02.682Z,31.96
2019-05-30T12:35:02.823Z,31.96
2019-05-30T12:36:02.706Z,31.37
2019-05-30T12:37:02.818Z,32.15
2019-05-30T12:38:05.951Z,31.95
2019-05-30T12:39:02.686Z,32.25
2019-05-30T12:40:03.091Z,32.35
2019-05-30T12:41:02.908Z,31.65
2019-05-30T12:42:03.215Z,31.25
2019-05-30T12:43:03.669Z,31.65
2019-05-30T12:44:01.745Z,31.35
2019-05-30T12:45:05.599Z,31.55
2019-05-30T12:46:03.280Z,30.75
2019-05-30T12:47:01.642Z,31.55
2019-05-30T12:48:01.628Z,31.25
2019-05-30T12:49:01.733Z,31.15
2019-05-30T12:50:01.633Z,31.95
2019-05-30T12:51:01.624Z,32.25
2019-05-30T12:52:01.595Z,31.85